Time;durP1;ratioP1;P1;durP2;ratioP2;P2;SDS_P1;SDS_P2;PMS_P1;PMS_P2;Temp;Humidity;BMP_temperature;BMP_pressure;BME280_temperature;BME280_humidity;BME280_pressure;Samples;Min_cycle;Max_cycle;Signal;HPM_P1;HPM_P2
2021/10/14 00:00:47;;;;;;;4.78;3.72;;;;;;;;;;5038587;28;20365;-57
2021/10/14 00:06:43;;;;;;;6.65;3.95;;;;;;;;;;4997153;28;20046;-57
2021/10/14 00:09:25;;;;;;;;;;;;;;;;;;;;;
2021/10/14 00:12:04;;;;;;;3.40;2.75;;;;;;;;;;5038075;28;20141;-57
2021/10/14 00:17:57;;;;;;;4.45;2.78;;;;;;;;;;5037365;28;20128;-57
2021/10/14 00:20:41;;;;;;;3.92;2.47;;;;;;;;;;5038108;28;20048;-57
2021/10/14 00:23:18;;;;;;;4.25;3.00;;;;;;;;;;5039064;28;20038;-57
2021/10/14 00:26:05;;;;;;;5.32;3.50;;;;;;;;;;5038740;28;20049;-57
2021/10/14 00:28:56;;;;;;;6.35;3.22;;;;;;;;;;5038037;28;20032;-56
2021/10/14 00:31:58;;;;;;;4.80;3.80;;;;;;;;;;5038824;28;21398;-57
2021/10/14 00:34:44;;;;;;;5.18;3.90;;;;;;;;;;5038247;28;20116;-57
2021/10/14 00:37:56;;;;;;;4.20;3.15;;;;;;;;;;5036806;28;20037;-57
2021/10/14 00:40:23;;;;;;;5.15;3.22;;;;;;;;;;5038396;28;20140;-56
2021/10/14 00:43:14;;;;;;;4.15;3.33;;;;;;;;;;5036897;28;20029;-57
2021/10/14 00:45:46;;;;;;;7.57;3.42;;;;;;;;;;5038625;28;20018;-57
2021/10/14 00:48:51;;;;;;;3.58;2.97;;;;;;;;;;5037530;28;20435;-57
2021/10/14 00:51:21;;;;;;;3.72;2.90;;;;;;;;;;5037644;28;20049;-57
2021/10/14 00:54:14;;;;;;;3.50;2.67;;;;;;;;;;5038619;28;20355;-57
2021/10/14 00:56:47;;;;;;;3.78;3.00;;;;;;;;;;5037947;28;20028;-57
2021/10/14 00:59:30;;;;;;;6.35;3.33;;;;;;;;;;5038827;28;20117;-57
2021/10/14 01:02:25;;;;;;;4.40;3.42;;;;;;;;;;5038180;28;20030;-57
2021/10/14 01:05:12;;;;;;;6.68;4.13;;;;;;;;;;5038703;28;20033;-57
2021/10/14 01:07:45;;;;;;;4.10;3.13;;;;;;;;;;5035763;28;20079;-56
2021/10/14 01:10:22;;;;;;;5.82;4.45;;;;;;;;;;5040980;28;20029;-57
2021/10/14 01:13:06;;;;;;;3.47;3.08;;;;;;;;;;5038087;28;20112;-57
2021/10/14 01:15:55;;;;;;;4.35;3.17;;;;;;;;;;5039828;28;20033;-56
2021/10/14 01:18:33;;;;;;;4.50;3.35;;;;;;;;;;5039921;28;20052;-57
2021/10/14 01:24:15;;;;;;;;;;;;;;;;;;5037044;28;20463;-57
2021/10/14 01:27:26;;;;;;;5.72;3.58;;;;;;;;;;5039606;28;19905;-57
2021/10/14 01:30:18;;;;;;;4.07;2.83;;;;;;;;;;5040710;28;20053;-57
2021/10/14 01:33:00;;;;;;;3.58;2.90;;;;;;;;;;5040692;28;20033;-57
2021/10/14 01:35:57;;;;;;;;;;;;;;;;;;;;;
2021/10/14 01:44:29;;;;;;;4.30;2.63;;;;;;;;;;5040285;28;20036;-57
2021/10/14 01:47:13;;;;;;;6.78;3.55;;;;;;;;;;5041826;28;20079;-57
2021/10/14 01:50:15;;;;;;;4.00;3.30;;;;;;;;;;5043969;28;20037;-56
2021/10/14 01:55:57;;;;;;;4.03;3.00;;;;;;;;;;5044189;28;20037;-55
2021/10/14 01:58:48;;;;;;;5.25;3.80;;;;;;;;;;5042106;28;20144;-57
2021/10/14 02:01:26;;;;;;;5.30;4.22;;;;;;;;;;5042801;28;20025;-57
2021/10/14 02:04:15;;;;;;;5.78;4.10;;;;;;;;;;5043622;28;20447;-57
2021/10/14 02:06:44;;;;;;;4.70;4.03;;;;;;;;;;5041774;28;20030;-58
2021/10/14 02:09:33;;;;;;;5.50;4.05;;;;;;;;;;5043785;28;20021;-57
2021/10/14 02:12:25;;;;;;;4.70;3.30;;;;;;;;;;5043188;28;20033;-57
2021/10/14 02:15:10;;;;;;;4.45;3.05;;;;;;;;;;5041407;28;20057;-57
2021/10/14 02:18:01;;;;;;;4.57;3.33;;;;;;;;;;5041987;28;20025;-55
2021/10/14 02:20:33;;;;;;;;;;;;;;;;;;5043261;28;20908;-57
2021/10/14 02:25:52;;;;;;;5.15;3.70;;;;;;;;;;5020822;28;20045;-56
2021/10/14 02:28:28;;;;;;;5.22;3.67;;;;;;;;;;5039330;28;20364;-57
2021/10/14 02:31:06;;;;;;;4.35;3.30;;;;;;;;;;5043271;28;20642;-55
2021/10/14 02:33:48;;;;;;;4.85;3.35;;;;;;;;;;5022349;28;20048;-57
2021/10/14 02:36:34;;;;;;;4.70;3.85;;;;;;;;;;5023704;28;20022;-55
2021/10/14 02:42:15;;;;;;;8.75;3.58;;;;;;;;;;5001158;28;20093;-57
2021/10/14 02:45:16;;;;;;;;;;;;;;;;;;;;;
2021/10/14 02:48:08;;;;;;;5.43;3.85;;;;;;;;;;5022181;28;20082;-57
2021/10/14 02:50:45;;;;;;;4.65;2.97;;;;;;;;;;5021165;28;20623;-57
2021/10/14 02:53:14;;;;;;;4.07;3.20;;;;;;;;;;5023100;28;20037;-57
2021/10/14 02:55:59;;;;;;;6.53;4.00;;;;;;;;;;5021195;28;20052;-57
2021/10/14 02:58:41;;;;;;;5.75;3.33;;;;;;;;;;5021927;28;20103;-57
2021/10/14 03:01:17;;;;;;;5.70;4.30;;;;;;;;;;5022140;28;20034;-57
2021/10/14 03:04:18;;;;;;;8.90;3.88;;;;;;;;;;5022759;28;20026;-57
2021/10/14 03:07:09;;;;;;;6.32;4.22;;;;;;;;;;5000065;28;20065;-58
2021/10/14 03:09:56;;;;;;;8.75;5.50;;;;;;;;;;5022664;28;20030;-56
2021/10/14 03:15:48;;;;;;;10.57;6.40;;;;;;;;;;4981057;28;20088;-57
2021/10/14 03:18:18;;;;;;;15.60;6.45;;;;;;;;;;4980577;28;20050;-57
2021/10/14 03:20:56;;;;;;;11.02;6.18;;;;;;;;;;5022262;28;20468;-57
2021/10/14 03:29:16;;;;;;;6.72;4.70;;;;;;;;;;5009530;28;20101;-56
2021/10/14 03:32:30;;;;;;;6.82;4.97;;;;;;;;;;5021422;28;20029;-56
2021/10/14 03:35:22;;;;;;;11.60;6.85;;;;;;;;;;5023078;28;20041;-57
2021/10/14 03:41:07;;;;;;;5.53;4.47;;;;;;;;;;5012099;28;20152;-56
2021/10/14 03:43:50;;;;;;;3.78;3.15;;;;;;;;;;5032154;28;20033;-57
2021/10/14 03:46:49;;;;;;;4.85;3.88;;;;;;;;;;5034416;28;20078;-56
2021/10/14 03:49:41;;;;;;;5.70;4.38;;;;;;;;;;5032897;28;20109;-57
2021/10/14 03:55:29;;;;;;;6.78;4.03;;;;;;;;;;5011048;28;20038;-57
2021/10/14 03:58:07;;;;;;;5.10;4.25;;;;;;;;;;5009224;28;20479;-57
2021/10/14 04:00:58;;;;;;;5.57;3.60;;;;;;;;;;4994437;28;20463;-56
2021/10/14 04:03:40;;;;;;;5.57;3.90;;;;;;;;;;5010627;28;20480;-57
2021/10/14 04:06:44;;;;;;;9.37;3.97;;;;;;;;;;5011145;28;20026;-57
2021/10/14 04:09:35;;;;;;;4.83;3.87;;;;;;;;;;5012921;28;20030;-57
2021/10/14 04:12:24;;;;;;;5.70;3.58;;;;;;;;;;5010857;28;20081;-56
2021/10/14 04:15:19;;;;;;;4.88;3.65;;;;;;;;;;5010553;28;20036;-57
2021/10/14 04:18:07;;;;;;;8.40;3.63;;;;;;;;;;5030729;28;20440;-56
2021/10/14 04:20:40;;;;;;;6.68;4.40;;;;;;;;;;5028622;28;20471;-57
2021/10/14 04:29:31;;;;;;;5.97;3.60;;;;;;;;;;5028595;28;20691;-57
2021/10/14 04:32:23;;;;;;;3.80;2.90;;;;;;;;;;5032245;28;20037;-57
2021/10/14 04:35:10;;;;;;;3.80;2.37;;;;;;;;;;5032782;28;20037;-56
2021/10/14 04:37:56;;;;;;;5.80;4.05;;;;;;;;;;5031906;28;20083;-56
2021/10/14 04:40:44;;;;;;;4.53;2.58;;;;;;;;;;5025718;28;20041;-56
2021/10/14 04:43:39;;;;;;;6.15;3.75;;;;;;;;;;5032565;28;20096;-55
2021/10/14 04:46:23;;;;;;;;;;;;;;;;;;;;;
2021/10/14 04:49:09;;;;;;;6.80;3.57;;;;;;;;;;5027199;28;20052;-56
2021/10/14 04:51:56;;;;;;;5.40;3.57;;;;;;;;;;5030414;28;20037;-56
2021/10/14 04:54:28;;;;;;;6.13;3.57;;;;;;;;;;5032113;28;20144;-56
2021/10/14 04:57:29;;;;;;;5.15;4.20;;;;;;;;;;5031371;28;20045;-57
2021/10/14 05:00:17;;;;;;;4.90;3.67;;;;;;;;;;5032281;28;20557;-56
2021/10/14 05:03:43;;;;;;;;;;;;;;;;;;;;;
2021/10/14 05:06:12;;;;;;;8.63;3.95;;;;;;;;;;5024532;28;20041;-57
2021/10/14 05:09:01;;;;;;;;;;;;;;;;;;;;;
2021/10/14 05:11:44;;;;;;;6.93;3.60;;;;;;;;;;5031698;28;20418;-55
2021/10/14 05:14:18;;;;;;;5.22;4.55;;;;;;;;;;5032404;28;20032;-57
2021/10/14 05:17:08;;;;;;;7.22;3.78;;;;;;;;;;5031496;28;20025;-56
2021/10/14 05:19:59;;;;;;;5.07;3.77;;;;;;;;;;5027281;28;20067;-57
2021/10/14 05:23:15;;;;;;;6.28;3.05;;;;;;;;;;5036439;28;20034;-57
2021/10/14 05:25:47;;;;;;;4.80;3.15;;;;;;;;;;4975897;28;20031;-56
2021/10/14 05:28:19;;;;;;;5.53;3.28;;;;;;;;;;5005683;28;20521;-57
2021/10/14 05:34:45;;;;;;;;;;;;;;;;;;;;;
2021/10/14 05:40:45;;;;;;;;;;;;;;;;;;;;;
2021/10/14 05:43:24;;;;;;;5.60;3.72;;;;;;;;;;5016424;28;20397;-56
2021/10/14 05:46:26;;;;;;;8.30;6.95;;;;;;;;;;5016898;28;20412;-57
2021/10/14 05:52:24;;;;;;;;;;;;;;;;;;;;;
2021/10/14 05:55:09;;;;;;;6.13;3.47;;;;;;;;;;5012164;28;20578;-56
2021/10/14 05:58:12;;;;;;;5.85;4.07;;;;;;;;;;5013599;28;20042;-57
2021/10/14 06:01:11;;;;;;;;;;;;;;;;;;;;;
2021/10/14 06:03:54;;;;;;;5.20;3.03;;;;;;;;;;5013883;28;20091;-58
2021/10/14 06:06:38;;;;;;;4.75;4.00;;;;;;;;;;5013718;28;20415;-58
2021/10/14 06:12:27;;;;;;;7.32;3.70;;;;;;;;;;5014818;28;20037;-58
2021/10/14 06:18:30;;;;;;;4.00;2.95;;;;;;;;;;5013024;28;20392;-56
2021/10/14 06:21:11;;;;;;;4.07;2.38;;;;;;;;;;5014704;28;20172;-55
2021/10/14 06:23:51;;;;;;;3.90;2.90;;;;;;;;;;5014204;28;20328;-56
2021/10/14 06:26:20;;;;;;;3.85;2.92;;;;;;;;;;5014669;28;20507;-58
2021/10/14 06:29:11;;;;;;;5.35;3.30;;;;;;;;;;5014130;28;20064;-58
2021/10/14 06:31:40;;;;;;;4.70;2.90;;;;;;;;;;5017551;28;20064;-58
2021/10/14 06:34:15;;;;;;;4.60;3.47;;;;;;;;;;5033737;28;20026;-56
2021/10/14 06:40:11;;;;;;;4.18;3.05;;;;;;;;;;4995298;28;20030;-58
2021/10/14 06:42:47;;;;;;;8.15;3.60;;;;;;;;;;5033711;28;20048;-57
2021/10/14 06:45:13;;;;;;;4.15;3.65;;;;;;;;;;5034009;28;20029;-54
2021/10/14 06:47:57;;;;;;;5.65;3.20;;;;;;;;;;5032644;28;20057;-57
2021/10/14 06:50:33;;;;;;;4.30;3.50;;;;;;;;;;5032509;28;20475;-55
2021/10/14 06:53:19;;;;;;;3.95;3.30;;;;;;;;;;5033518;28;20533;-55
2021/10/14 06:56:03;;;;;;;4.63;2.90;;;;;;;;;;5033164;28;20392;-57
2021/10/14 06:58:58;;;;;;;6.55;3.35;;;;;;;;;;5032503;28;20042;-57
2021/10/14 07:04:57;;;;;;;8.20;4.72;;;;;;;;;;5033471;28;20120;-57
2021/10/14 07:07:46;;;;;;;5.35;3.10;;;;;;;;;;5032772;28;20388;-57
2021/10/14 07:10:33;;;;;;;6.32;3.42;;;;;;;;;;5033479;28;20049;-54
2021/10/14 07:13:24;;;;;;;6.65;3.13;;;;;;;;;;5034264;28;20372;-57
2021/10/14 07:16:11;;;;;;;7.30;4.13;;;;;;;;;;5033452;28;20064;-58
2021/10/14 07:19:01;;;;;;;5.45;3.80;;;;;;;;;;5030986;28;20288;-57
2021/10/14 07:21:53;;;;;;;4.50;3.40;;;;;;;;;;5031461;28;20795;-57
2021/10/14 07:24:47;;;;;;;4.50;3.42;;;;;;;;;;5031657;28;20025;-56
2021/10/14 07:27:23;;;;;;;5.65;4.57;;;;;;;;;;5031110;28;20041;-58
2021/10/14 07:30:12;;;;;;;;;;;;;;;;;;;;;
2021/10/14 07:33:32;;;;;;;6.00;3.47;;;;;;;;;;5032391;28;20402;-56
2021/10/14 07:36:22;;;;;;;6.00;3.33;;;;;;;;;;5032647;28;20479;-57
2021/10/14 07:39:06;;;;;;;5.45;3.25;;;;;;;;;;5032200;28;20033;-57
2021/10/14 07:41:35;;;;;;;3.92;2.83;;;;;;;;;;5033229;28;20167;-57
2021/10/14 07:44:11;;;;;;;6.03;3.88;;;;;;;;;;5032770;28;20432;-57
2021/10/14 07:46:56;;;;;;;10.70;3.70;;;;;;;;;;5032145;28;20025;-58
2021/10/14 07:49:44;;;;;;;6.20;3.40;;;;;;;;;;5032442;28;20041;-57
2021/10/14 07:52:30;;;;;;;5.30;4.15;;;;;;;;;;5032502;28;20491;-56
2021/10/14 07:58:06;;;;;;;4.07;3.08;;;;;;;;;;5028824;28;20032;-57
2021/10/14 08:04:13;;;;;;;4.68;3.28;;;;;;;;;;5009032;28;20591;-58
2021/10/14 08:06:57;;;;;;;3.35;3.03;;;;;;;;;;5007416;28;20108;-57
2021/10/14 08:09:29;;;;;;;7.75;4.25;;;;;;;;;;5039681;28;20040;-57
2021/10/14 08:12:33;;;;;;;;;;;;;;;;;;;;;
2021/10/14 08:15:41;;;;;;;7.10;4.18;;;;;;;;;;5032194;28;20382;-56
2021/10/14 08:18:40;;;;;;;4.78;2.95;;;;;;;;;;4912186;28;20169;-58
2021/10/14 08:21:24;;;;;;;4.68;2.90;;;;;;;;;;4931058;28;20133;-57
2021/10/14 08:27:01;;;;;;;4.78;3.22;;;;;;;;;;5030580;28;20030;-57
2021/10/14 08:29:54;;;;;;;6.78;3.50;;;;;;;;;;5030730;28;20048;-58
2021/10/14 08:32:29;;;;;;;4.22;2.70;;;;;;;;;;5030641;28;20120;-58
2021/10/14 08:35:04;;;;;;;3.78;2.83;;;;;;;;;;5032739;28;20382;-58
2021/10/14 08:37:32;;;;;;;4.97;2.97;;;;;;;;;;5012679;28;20156;-57
2021/10/14 08:40:27;;;;;;;;;;;;;;;;;;;;;
2021/10/14 08:43:19;;;;;;;;;;;;;;;;;;;;;
2021/10/14 08:49:09;;;;;;;4.75;3.35;;;;;;;;;;5022327;28;20033;-58
2021/10/14 08:52:00;;;;;;;4.85;2.70;;;;;;;;;;5030021;28;20030;-57
2021/10/14 08:57:49;;;;;;;;;;;;;;;;;;;;;
2021/10/14 09:01:16;;;;;;;4.93;3.15;;;;;;;;;;5034523;28;20461;-58
2021/10/14 09:07:04;;;;;;;5.25;2.80;;;;;;;;;;5023032;28;20025;-57
2021/10/14 09:09:36;;;;;;;6.05;3.50;;;;;;;;;;5033202;28;20060;-57
2021/10/14 09:12:26;;;;;;;4.43;2.45;;;;;;;;;;5030599;28;20487;-57
2021/10/14 09:21:17;;;;;;;4.57;3.13;;;;;;;;;;5029086;28;20037;-57
2021/10/14 09:23:59;;;;;;;;;;;;;;;;;;;;;
2021/10/14 09:29:51;;;;;;;10.13;3.30;;;;;;;;;;5012947;28;20029;-56
2021/10/14 09:32:20;;;;;;;5.78;2.72;;;;;;;;;;5033211;28;20033;-57
2021/10/14 09:35:02;;;;;;;5.25;3.17;;;;;;;;;;5034739;28;20029;-58
2021/10/14 09:37:41;;;;;;;3.42;2.20;;;;;;;;;;5034088;28;20035;-57
2021/10/14 09:40:16;;;;;;;6.00;2.60;;;;;;;;;;5035027;28;20041;-57
2021/10/14 09:42:57;;;;;;;4.38;3.50;;;;;;;;;;5033410;28;20033;-57
2021/10/14 09:45:55;;;;;;;4.93;3.08;;;;;;;;;;5033160;28;20438;-57
2021/10/14 09:48:44;;;;;;;4.15;2.58;;;;;;;;;;5032838;28;20037;-57
2021/10/14 09:51:16;;;;;;;4.82;3.08;;;;;;;;;;5033572;28;20026;-57
2021/10/14 09:54:18;;;;;;;4.60;2.80;;;;;;;;;;5034369;28;20105;-57
2021/10/14 09:56:47;;;;;;;5.20;3.00;;;;;;;;;;5033612;28;20326;-57
2021/10/14 09:59:46;;;;;;;4.75;2.63;;;;;;;;;;5034432;28;20040;-56
2021/10/14 10:05:32;;;;;;;4.13;2.65;;;;;;;;;;5033281;28;20041;-57
2021/10/14 10:08:26;;;;;;;2.78;1.85;;;;;;;;;;5031792;28;20113;-58
2021/10/14 10:10:53;;;;;;;3.58;2.40;;;;;;;;;;5034280;28;20136;-58
2021/10/14 10:13:22;;;;;;;3.42;2.50;;;;;;;;;;5032195;28;20402;-58
2021/10/14 10:16:12;;;;;;;4.72;2.45;;;;;;;;;;5033265;28;20071;-58
2021/10/14 10:18:42;;;;;;;5.15;4.43;;;;;;;;;;5024177;28;20105;-58
2021/10/14 10:21:33;;;;;;;4.30;2.85;;;;;;;;;;5032934;28;20029;-58
2021/10/14 10:26:59;;;;;;;3.58;2.33;;;;;;;;;;5034190;28;19909;-58
2021/10/14 10:29:33;;;;;;;3.83;2.38;;;;;;;;;;5034169;28;20061;-58
2021/10/14 10:32:37;;;;;;;6.00;2.30;;;;;;;;;;5032772;28;20033;-58
2021/10/14 10:35:15;;;;;;;4.50;2.22;;;;;;;;;;5032941;28;20025;-58
2021/10/14 10:38:13;;;;;;;6.18;2.70;;;;;;;;;;5033212;28;20104;-58
2021/10/14 10:41:09;;;;;;;;;;;;;;;;;;;;;
2021/10/14 10:43:55;;;;;;;;;;;;;;;;;;;;;
2021/10/14 10:46:42;;;;;;;4.82;2.47;;;;;;;;;;5031870;28;20112;-58
2021/10/14 10:49:43;;;;;;;2.50;1.73;;;;;;;;;;5034401;28;20053;-58
2021/10/14 10:55:49;;;;;;;4.55;2.17;;;;;;;;;;5030519;28;20390;-58
2021/10/14 10:58:38;;;;;;;4.43;2.38;;;;;;;;;;5033264;28;20117;-58
2021/10/14 11:01:22;;;;;;;2.85;2.03;;;;;;;;;;5033183;28;20030;-57
2021/10/14 11:04:04;;;;;;;3.78;2.15;;;;;;;;;;5017668;28;20499;-55
2021/10/14 11:06:46;;;;;;;;;;;;;;;;;;;;;
2021/10/14 11:09:38;;;;;;;3.78;2.03;;;;;;;;;;5032924;28;20018;-58
2021/10/14 11:15:34;;;;;;;2.97;1.63;;;;;;;;;;5029618;28;20030;-58
2021/10/14 11:18:12;;;;;;;2.35;1.27;;;;;;;;;;5031489;28;20546;-58
2021/10/14 11:21:13;;;;;;;;;;;;;;;;;;;;;
2021/10/14 11:24:04;;;;;;;2.47;1.35;;;;;;;;;;5031783;28;20480;-57
2021/10/14 11:32:58;;;;;;;1.92;0.90;;;;;;;;;;5032948;28;20049;-58
2021/10/14 11:35:48;;;;;;;3.40;1.40;;;;;;;;;;5031172;28;20049;-58
2021/10/14 11:38:24;;;;;;;5.40;1.58;;;;;;;;;;5031776;28;20112;-58
2021/10/14 11:47:05;;;;;;;4.27;1.83;;;;;;;;;;5028573;28;20075;-58
2021/10/14 11:55:42;;;;;;;2.75;1.75;;;;;;;;;;5028050;28;20112;-58
2021/10/14 11:58:31;;;;;;;2.63;1.90;;;;;;;;;;5030162;28;20030;-58
2021/10/14 12:01:18;;;;;;;3.42;1.92;;;;;;;;;;5032500;28;20047;-58
2021/10/14 12:07:01;;;;;;;3.55;2.33;;;;;;;;;;5040681;28;20061;-58
2021/10/14 12:09:47;;;;;;;3.33;1.83;;;;;;;;;;5009662;28;20096;-58
2021/10/14 12:12:48;;;;;;;3.33;1.80;;;;;;;;;;5009766;28;20128;-58
2021/10/14 12:15:22;;;;;;;4.60;1.95;;;;;;;;;;5040040;28;20044;-58
2021/10/14 12:18:25;;;;;;;3.72;2.35;;;;;;;;;;5049256;28;20029;-58
2021/10/14 12:20:54;;;;;;;3.53;2.55;;;;;;;;;;5030171;28;20538;-58
2021/10/14 12:23:46;;;;;;;6.25;2.63;;;;;;;;;;5049872;28;20108;-57
2021/10/14 12:26:56;;;;;;;4.45;2.45;;;;;;;;;;5050050;28;20029;-58
2021/10/14 12:33:24;;;;;;;7.68;2.30;;;;;;;;;;4990199;28;20133;-58
2021/10/14 12:36:10;;;;;;;3.75;1.50;;;;;;;;;;5012292;28;20411;-58
2021/10/14 12:38:50;;;;;;;5.20;2.50;;;;;;;;;;5011663;28;20104;-58
2021/10/14 12:41:39;;;;;;;3.95;2.42;;;;;;;;;;5012351;28;20384;-58
2021/10/14 12:44:09;;;;;;;5.22;2.33;;;;;;;;;;5010960;28;20034;-58
2021/10/14 12:49:51;;;;;;;4.00;2.10;;;;;;;;;;5012440;28;20071;-58
2021/10/14 12:52:20;;;;;;;4.38;2.60;;;;;;;;;;5011299;28;20459;-58
2021/10/14 12:55:08;;;;;;;5.75;2.22;;;;;;;;;;5012358;28;20030;-58
2021/10/14 12:57:50;;;;;;;2.92;1.90;;;;;;;;;;5011515;28;20026;-58
2021/10/14 13:03:34;;;;;;;2.85;1.75;;;;;;;;;;5009255;28;20038;-58
2021/10/14 13:09:33;;;;;;;;;;;;;;;;;;;;;
2021/10/14 13:12:03;;;;;;;4.35;2.35;;;;;;;;;;5008798;28;20042;-58
2021/10/14 13:14:41;;;;;;;3.70;2.08;;;;;;;;;;5010012;28;20038;-58
2021/10/14 13:20:20;;;;;;;6.53;2.58;;;;;;;;;;4989775;28;20184;-58
2021/10/14 13:23:08;;;;;;;3.80;2.40;;;;;;;;;;4994803;28;20049;-58
2021/10/14 13:26:08;;;;;;;5.13;2.50;;;;;;;;;;4995907;28;20057;-58
2021/10/14 13:29:10;;;;;;;4.35;2.33;;;;;;;;;;5012223;28;20094;-58
2021/10/14 13:31:40;;;;;;;6.47;3.08;;;;;;;;;;5010262;28;20470;-58
2021/10/14 13:34:23;;;;;;;5.53;3.07;;;;;;;;;;5048729;28;20498;-58
2021/10/14 13:42:43;;;;;;;5.38;3.03;;;;;;;;;;5026645;28;20069;-58
2021/10/14 13:45:26;;;;;;;;;;;;;;;;;;;;;
2021/10/14 13:51:12;;;;;;;3.63;2.47;;;;;;;;;;5034339;28;20348;-58
2021/10/14 13:53:50;;;;;;;6.20;2.28;;;;;;;;;;5034606;28;20036;-58
2021/10/14 13:56:42;;;;;;;5.45;2.75;;;;;;;;;;5036006;28;20040;-58
2021/10/14 13:59:23;;;;;;;4.20;3.25;;;;;;;;;;5032398;28;20501;-58
2021/10/14 14:02:12;;;;;;;5.80;2.55;;;;;;;;;;5033304;28;20443;-58
2021/10/14 14:04:58;;;;;;;;;;;;;;;;;;;;;
2021/10/14 14:07:33;;;;;;;5.93;2.45;;;;;;;;;;5031405;28;20327;-58
2021/10/14 14:10:16;;;;;;;5.72;2.03;;;;;;;;;;5033747;28;20450;-58
2021/10/14 14:15:50;;;;;;;3.25;1.42;;;;;;;;;;4992617;28;20084;-58
2021/10/14 14:18:39;;;;;;;4.53;2.45;;;;;;;;;;5033208;28;20032;-58
2021/10/14 14:21:35;;;;;;;17.00;2.60;;;;;;;;;;5033314;28;20045;-58
2021/10/14 14:27:24;;;;;;;6.38;2.53;;;;;;;;;;5026230;28;20282;-58
2021/10/14 14:30:08;;;;;;;3.78;2.60;;;;;;;;;;5034278;28;20112;-58
2021/10/14 14:32:53;;;;;;;3.78;2.13;;;;;;;;;;5029793;28;20041;-58
2021/10/14 14:35:34;;;;;;;4.55;2.05;;;;;;;;;;5014708;28;20073;-58
2021/10/14 14:38:16;;;;;;;4.05;2.08;;;;;;;;;;5012428;28;20121;-58
2021/10/14 14:41:18;;;;;;;6.15;2.08;;;;;;;;;;5014041;28;20436;-58
2021/10/14 14:46:45;;;;;;;4.35;1.92;;;;;;;;;;5005992;28;20045;-58
2021/10/14 14:55:37;;;;;;;3.75;1.85;;;;;;;;;;5027627;28;20032;-58
2021/10/14 14:58:20;;;;;;;6.80;2.22;;;;;;;;;;5032001;28;20017;-58
2021/10/14 15:00:55;;;;;;;5.32;2.60;;;;;;;;;;5031644;28;20018;-58
2021/10/14 15:06:37;;;;;;;4.05;1.85;;;;;;;;;;5033781;28;20060;-58
2021/10/14 15:09:21;;;;;;;5.07;2.00;;;;;;;;;;5033658;28;20037;-58
2021/10/14 15:12:17;;;;;;;4.05;2.33;;;;;;;;;;5033673;28;20087;-58
2021/10/14 15:14:51;;;;;;;2.55;1.60;;;;;;;;;;5033794;28;20303;-58
2021/10/14 15:17:45;;;;;;;3.08;1.60;;;;;;;;;;5032044;28;20215;-58
2021/10/14 15:20:44;;;;;;;6.28;2.08;;;;;;;;;;5033416;28;20483;-59
2021/10/14 15:23:35;;;;;;;;;;;;;;;;;;;;;
2021/10/14 15:26:10;;;;;;;3.42;2.08;;;;;;;;;;5050958;28;20045;-59
2021/10/14 15:29:01;;;;;;;3.70;2.15;;;;;;;;;;5050060;28;20037;-59
2021/10/14 15:31:55;;;;;;;;;;;;;;;;;;;;;
2021/10/14 15:34:35;;;;;;;2.47;1.80;;;;;;;;;;5051086;28;20069;-59
2021/10/14 15:37:07;;;;;;;3.87;2.10;;;;;;;;;;5043923;28;20068;-58
2021/10/14 15:39:58;;;;;;;3.63;1.65;;;;;;;;;;5033404;28;20061;-59
2021/10/14 15:42:40;;;;;;;;;;;;;;;;;;5033568;28;20064;-59
2021/10/14 15:49:05;;;;;;;;;;;;;;;;;;;;;
2021/10/14 15:55:00;;;;;;;3.53;2.05;;;;;;;;;;5024847;28;20030;-59
2021/10/14 15:58:01;;;;;;;2.70;1.50;;;;;;;;;;5031120;28;20092;-59
2021/10/14 16:00:37;;;;;;;4.93;1.55;;;;;;;;;;5013135;28;20458;-59
2021/10/14 16:03:44;;;;;;;2.92;1.40;;;;;;;;;;5032342;28;20033;-58
2021/10/14 16:06:25;;;;;;;2.47;1.83;;;;;;;;;;5012817;28;20124;-59
2021/10/14 16:09:14;;;;;;;6.32;2.65;;;;;;;;;;5012774;28;20041;-59
2021/10/14 16:15:09;;;;;;;2.28;1.55;;;;;;;;;;5025767;28;20443;-59
2021/10/14 16:18:03;;;;;;;3.90;1.88;;;;;;;;;;5030855;28;20025;-59
2021/10/14 16:20:41;;;;;;;8.10;2.35;;;;;;;;;;5032394;28;20093;-59
2021/10/14 16:23:26;;;;;;;4.45;2.10;;;;;;;;;;5032170;28;20221;-59
2021/10/14 16:26:04;;;;;;;4.55;2.80;;;;;;;;;;5031095;28;20479;-58
2021/10/14 16:28:38;;;;;;;3.33;1.50;;;;;;;;;;5030404;28;20459;-59
2021/10/14 16:31:17;;;;;;;3.72;1.80;;;;;;;;;;5032203;28;20026;-59
2021/10/14 16:37:13;;;;;;;;;;;;;;;;;;;;;
2021/10/14 16:39:55;;;;;;;;;;;;;;;;;;;;;
2021/10/14 16:42:52;;;;;;;4.50;2.75;;;;;;;;;;5011876;28;20156;-59
2021/10/14 16:45:27;;;;;;;4.95;3.67;;;;;;;;;;5009259;28;20483;-59
2021/10/14 16:48:08;;;;;;;3.47;2.00;;;;;;;;;;5009782;28;20033;-59
2021/10/14 16:51:02;;;;;;;;;;;;;;;;;;;;;
2021/10/14 16:53:31;;;;;;;9.13;2.33;;;;;;;;;;5003535;28;20034;-59
2021/10/14 16:56:11;;;;;;;4.93;2.88;;;;;;;;;;5010853;28;20376;-58
2021/10/14 16:59:03;;;;;;;;;;;;;;;;;;;;;
2021/10/14 17:04:40;;;;;;;3.38;2.35;;;;;;;;;;5011662;28;20030;-58
2021/10/14 17:07:12;;;;;;;3.45;2.50;;;;;;;;;;5011459;28;20030;-58
2021/10/14 17:10:03;;;;;;;7.20;3.15;;;;;;;;;;5012394;28;20042;-58
2021/10/14 17:12:50;;;;;;;3.65;2.30;;;;;;;;;;5010806;28;20049;-58
2021/10/14 17:18:31;;;;;;;;;;;;;;;;;;;;;
2021/10/14 17:38:06;;;;;;;5.35;3.22;;;;;;;;;;5034919;28;20136;-58
2021/10/14 17:40:52;;;;;;;3.50;2.78;;;;;;;;;;5034206;28;20038;-57
2021/10/14 17:46:39;;;;;;;7.22;3.92;;;;;;;;;;5035321;28;20030;-58
2021/10/14 17:49:27;;;;;;;5.53;3.70;;;;;;;;;;5035715;28;20051;-58
2021/10/14 17:55:06;;;;;;;12.18;4.45;;;;;;;;;;4993238;28;20431;-60
2021/10/14 17:57:57;;;;;;;9.55;4.70;;;;;;;;;;5015825;28;20087;-58
2021/10/14 18:00:25;;;;;;;4.70;2.83;;;;;;;;;;5034304;28;20029;-57
2021/10/14 18:08:44;;;;;;;5.72;3.47;;;;;;;;;;5033991;28;20034;-58
2021/10/14 18:39:53;;;;;;;4.60;3.60;;;;;;;;;;5034004;28;20025;-59
2021/10/14 18:42:37;;;;;;;6.00;3.63;;;;;;;;;;5034260;28;20405;-59
2021/10/14 18:45:22;;;;;;;6.00;3.03;;;;;;;;;;5034679;28;20375;-59
2021/10/14 18:53:24;;;;;;;9.25;4.75;;;;;;;;;;5033660;28;20483;-59
2021/10/14 18:56:22;;;;;;;10.07;4.03;;;;;;;;;;5034524;28;20026;-58
2021/10/14 18:59:08;;;;;;;6.28;4.55;;;;;;;;;;5033271;28;20025;-58
2021/10/14 19:01:54;;;;;;;6.93;4.65;;;;;;;;;;5034100;28;20025;-59
2021/10/14 19:16:08;;;;;;;7.65;6.25;;;;;;;;;;5033972;28;20029;-59
2021/10/14 19:19:11;;;;;;;10.68;6.10;;;;;;;;;;5018075;28;20242;-59
2021/10/14 20:14:47;;;;;;;14.07;6.45;;;;;;;;;;5030621;28;20056;-59
2021/10/14 20:20:28;;;;;;;9.32;6.13;;;;;;;;;;4943766;29;20050;-59
2021/10/14 20:22:58;;;;;;;14.10;7.15;;;;;;;;;;5018598;28;20069;-59
2021/10/14 20:25:37;;;;;;;13.68;7.57;;;;;;;;;;5029417;28;20648;-59
2021/10/14 20:28:14;;;;;;;11.57;7.80;;;;;;;;;;5031815;28;20068;-58
2021/10/14 20:30:51;;;;;;;;;;;;;;;;;;;;;
2021/10/14 20:33:47;;;;;;;9.52;6.70;;;;;;;;;;5029442;28;20029;-59
2021/10/14 20:36:44;;;;;;;;;;;;;;;;;;;;;
2021/10/14 20:39:31;;;;;;;12.30;8.45;;;;;;;;;;5030773;28;20409;-59
2021/10/14 20:42:44;;;;;;;10.82;8.75;;;;;;;;;;5031330;28;20103;-59
2021/10/14 20:48:30;;;;;;;10.35;7.53;;;;;;;;;;5028977;28;20037;-58
2021/10/14 20:51:24;;;;;;;9.55;8.15;;;;;;;;;;5047474;28;20049;-58
2021/10/14 21:05:01;;;;;;;10.45;8.63;;;;;;;;;;5041781;28;20375;-56
2021/10/14 21:07:34;;;;;;;10.35;7.60;;;;;;;;;;5040661;28;20021;-59
2021/10/14 21:10:16;;;;;;;10.07;7.72;;;;;;;;;;5042351;28;20029;-59
2021/10/14 21:13:16;;;;;;;8.00;6.45;;;;;;;;;;5039757;28;20022;-58
2021/10/14 21:16:16;;;;;;;;;;;;;;;;;;;;;
2021/10/14 21:18:55;;;;;;;12.77;9.38;;;;;;;;;;5029011;28;20355;-58
2021/10/14 21:21:42;;;;;;;9.45;8.45;;;;;;;;;;5041076;28;20029;-57
2021/10/14 21:24:26;;;;;;;15.35;8.63;;;;;;;;;;5037867;28;20045;-58
2021/10/14 21:38:41;;;;;;;10.13;8.52;;;;;;;;;;5039670;28;20036;-57
2021/10/14 21:41:33;;;;;;;7.88;6.63;;;;;;;;;;5036268;28;20038;-58
2021/10/14 21:44:09;;;;;;;8.15;6.72;;;;;;;;;;5040523;28;20089;-57
2021/10/14 21:47:23;;;;;;;10.23;7.20;;;;;;;;;;5038177;28;20056;-58
2021/10/14 21:50:37;;;;;;;9.50;7.60;;;;;;;;;;4999018;28;20026;-57
2021/10/14 21:53:13;;;;;;;7.57;6.28;;;;;;;;;;4973514;28;20038;-58
2021/10/14 21:55:57;;;;;;;8.85;6.45;;;;;;;;;;5034725;28;20056;-57
2021/10/14 21:58:34;;;;;;;8.18;6.32;;;;;;;;;;5039968;28;20029;-58
2021/10/14 22:01:04;;;;;;;7.22;6.53;;;;;;;;;;5037122;28;20033;-58
2021/10/14 22:03:52;;;;;;;;;;;;;;;;;;;;;
2021/10/14 22:10:01;;;;;;;8.32;6.88;;;;;;;;;;5038529;28;20041;-59
2021/10/14 22:12:30;;;;;;;7.93;6.93;;;;;;;;;;5018537;28;20162;-58
2021/10/14 22:18:12;;;;;;;8.70;7.03;;;;;;;;;;5032034;28;20040;-58
2021/10/14 22:26:53;;;;;;;8.98;7.13;;;;;;;;;;4962261;28;20085;-59
2021/10/14 22:29:39;;;;;;;7.50;6.45;;;;;;;;;;5038173;28;20038;-58
2021/10/14 22:32:36;;;;;;;9.15;6.00;;;;;;;;;;5037888;28;20025;-59
2021/10/14 22:35:15;;;;;;;13.48;7.53;;;;;;;;;;5020871;28;20037;-59
2021/10/14 22:38:04;;;;;;;;;;;;;;;;;;;;;
2021/10/14 22:40:46;;;;;;;10.45;6.85;;;;;;;;;;5003574;28;20109;-59
2021/10/14 22:43:37;;;;;;;9.82;6.07;;;;;;;;;;5006726;28;20062;-59
2021/10/14 22:46:16;;;;;;;7.47;6.68;;;;;;;;;;5017958;28;20495;-59
2021/10/14 22:49:00;;;;;;;9.35;6.80;;;;;;;;;;5016302;28;20080;-59
2021/10/14 22:54:51;;;;;;;7.70;6.13;;;;;;;;;;5009515;28;20034;-57
2021/10/14 22:57:40;;;;;;;8.27;6.90;;;;;;;;;;5016459;28;20108;-57
2021/10/14 23:03:20;;;;;;;8.38;6.20;;;;;;;;;;5013544;28;20044;-58
2021/10/14 23:05:56;;;;;;;6.47;5.75;;;;;;;;;;5018896;28;20411;-58
2021/10/14 23:08:29;;;;;;;9.05;5.18;;;;;;;;;;5019286;28;20022;-57
2021/10/14 23:11:10;;;;;;;9.18;5.43;;;;;;;;;;5019292;28;20483;-58
2021/10/14 23:13:47;;;;;;;7.35;6.10;;;;;;;;;;5019606;28;20025;-58